Time;durP1;ratioP1;P1;durP2;ratioP2;P2;SDS_P1;SDS_P2;PMS_P1;PMS_P2;Temp;Humidity;BMP_temperature;BMP_pressure;BME280_temperature;BME280_humidity;BME280_pressure;Samples;Min_cycle;Max_cycle;Signal;HPM_P1;HPM_P2
2022/04/06 00:00:32;;;;;;;;;2.50;2.00;;;;;13.69;53.03;100989.69;2441313;28;45278;-80
2022/04/06 00:01:46;;;;;;;;;2.00;2.00;;;;;13.70;52.80;100992.25;2440446;28;46105;-80
2022/04/06 00:02:57;;;;;;;;;4.00;2.00;;;;;13.68;53.04;100982.72;2440793;28;45398;-80
2022/04/06 00:04:07;;;;;;;;;2.50;2.00;;;;;13.68;52.81;100983.56;2441065;28;45428;-80
2022/04/06 00:05:17;;;;;;;;;2.50;2.50;;;;;13.68;52.55;100986.19;2440882;28;45256;-80
2022/04/06 00:06:28;;;;;;;;;2.50;1.00;;;;;13.68;52.53;100994.13;2441231;28;45570;-83
2022/04/06 00:07:40;;;;;;;;;3.50;3.00;;;;;13.66;53.03;100982.75;2441206;28;45287;-84
2022/04/06 00:08:50;;;;;;;;;4.00;2.00;;;;;13.66;52.19;100984.53;2440834;28;45462;-84
2022/04/06 00:10:01;;;;;;;;;3.00;3.00;;;;;13.62;52.55;100986.47;2441162;28;45283;-84
2022/04/06 00:11:11;;;;;;;;;1.50;1.00;;;;;13.60;52.69;100975.97;2447838;28;46270;-83
2022/04/06 00:12:21;;;;;;;;;2.75;1.00;;;;;13.58;52.70;100975.16;2451110;27;44603;-84
2022/04/06 00:13:32;;;;;;;;;1.50;1.00;;;;;13.55;52.57;100980.56;2448127;27;46434;-83
2022/04/06 00:14:42;;;;;;;;;1.00;1.00;;;;;13.54;52.51;100983.25;2445765;27;45224;-82
2022/04/06 00:15:52;;;;;;;;;4.75;2.00;;;;;13.49;52.60;100978.16;2441267;27;46563;-83
2022/04/06 00:17:05;;;;;;;;;2.50;2.00;;;;;13.47;52.87;100980.88;2441326;28;45253;-83
2022/04/06 00:18:15;;;;;;;;;4.50;2.00;;;;;13.46;52.66;100984.41;2447425;28;46353;-83
2022/04/06 00:19:26;;;;;;;;;2.75;2.00;;;;;13.45;52.94;100985.34;2445836;27;45145;-84
2022/04/06 00:20:36;;;;;;;;;5.25;3.25;;;;;13.44;52.71;100977.47;2440637;28;46206;-83
2022/04/06 00:21:47;;;;;;;;;2.00;2.00;;;;;13.44;52.71;100974.84;2441243;28;45311;-83
2022/04/06 00:22:57;;;;;;;;;1.00;1.00;;;;;13.43;52.06;100983.69;2440221;28;47409;-84
2022/04/06 00:24:07;;;;;;;;;1.00;1.00;;;;;13.43;52.31;100974.00;2433327;28;45246;-83
2022/04/06 00:25:18;;;;;;;;;2.25;1.25;;;;;13.40;52.64;100968.84;2440457;28;45323;-81
2022/04/06 00:26:28;;;;;;;;;2.50;1.00;;;;;13.39;52.50;100965.34;2441267;28;45216;-81
2022/04/06 00:27:38;;;;;;;;;1.00;1.00;;;;;13.40;52.55;100963.56;2441807;28;45383;-81
2022/04/06 00:28:49;;;;;;;;;3.00;1.50;;;;;13.41;52.79;100967.91;2450943;27;45281;-81
2022/04/06 00:30:00;;;;;;;;;6.25;2.00;;;;;13.41;52.47;100959.97;2440464;28;48182;-81
2022/04/06 00:31:12;;;;;;;;;1.75;1.25;;;;;13.39;52.77;100953.91;2440626;28;45244;-81
2022/04/06 00:32:23;;;;;;;;;4.00;1.00;;;;;13.38;52.08;100957.50;2440919;28;45548;-83
2022/04/06 00:33:33;;;;;;;;;3.00;1.25;;;;;13.37;52.08;100955.75;2441270;28;45211;-83
2022/04/06 00:36:12;;;;;;;;;1.25;1.25;;;;;13.37;52.33;100968.97;2441219;28;45298;-84
2022/04/06 00:37:23;;;;;;;;;1.00;1.00;;;;;13.33;52.60;100956.81;2450843;27;46694;-84
2022/04/06 00:38:33;;;;;;;;;2.25;1.00;;;;;13.31;51.95;100956.03;2450106;28;44669;-84
2022/04/06 00:39:44;;;;;;;;;1.00;1.00;;;;;13.31;51.96;100956.88;2442226;28;48188;-86
2022/04/06 00:40:54;;;;;;;;;2.25;0.50;;;;;13.30;51.90;100951.66;2450065;28;44735;-84
2022/04/06 00:42:05;;;;;;;;;2.50;1.00;;;;;13.28;51.85;100949.94;2441234;28;45401;-90
2022/04/06 00:43:15;;;;;;;;;4.25;1.00;;;;;13.24;51.68;100951.00;2447320;28;45428;-91
2022/04/06 00:44:28;;;;;;;;;0.75;0.75;;;;;13.24;51.75;100937.78;2448282;27;45411;-90
2022/04/06 00:45:39;;;;;;;;;1.00;1.00;;;;;13.23;52.05;100940.50;2441328;28;44699;-92
2022/04/06 00:46:49;;;;;;;;;2.25;1.00;;;;;13.21;51.88;100931.78;2449172;28;47403;-83
2022/04/06 00:48:00;;;;;;;;;3.25;0.25;;;;;13.20;52.89;100941.47;2445097;28;44607;-85
2022/04/06 00:49:14;;;;;;;;;1.00;1.00;;;;;13.20;52.14;100941.47;2446641;28;45184;-85
2022/04/06 00:50:25;;;;;;;;;0.25;0.25;;;;;13.20;52.25;100938.84;2440741;28;45283;-84
2022/04/06 00:51:35;;;;;;;;;3.75;1.00;;;;;13.18;52.00;100939.81;2439911;28;47962;-84
2022/04/06 00:52:48;;;;;;;;;2.00;1.00;;;;;13.19;51.87;100939.75;2440555;28;44651;-84
2022/04/06 00:53:59;;;;;;;;;2.00;2.00;;;;;13.20;51.72;100940.63;2440953;28;45295;-82
2022/04/06 00:55:12;;;;;;;;;1.75;1.75;;;;;13.18;52.11;100938.06;2441125;28;45170;-82
2022/04/06 00:56:23;;;;;;;;;2.00;1.25;;;;;13.14;52.03;100932.03;2440831;28;45359;-82
2022/04/06 00:57:34;;;;;;;;;1.50;1.25;;;;;13.12;51.89;100933.00;2440775;28;44820;-81
2022/04/06 00:58:45;;;;;;;;;0.25;0.25;;;;;13.11;52.30;100937.41;2440045;28;45631;-83
2022/04/06 00:59:56;;;;;;;;;2.75;1.00;;;;;13.11;51.90;100926.03;2440387;28;45160;-83
2022/04/06 01:01:07;;;;;;;;;1.75;0.75;;;;;13.09;52.37;100926.06;2448756;28;46306;-84
2022/04/06 01:02:17;;;;;;;;;4.50;2.00;;;;;13.06;52.06;100928.88;2444350;27;45362;-84
2022/04/06 01:03:28;;;;;;;;;1.75;1.50;;;;;13.07;52.35;100929.69;2440745;28;46538;-83
2022/04/06 01:04:39;;;;;;;;;2.00;1.00;;;;;13.04;52.71;100928.03;2441056;28;45215;-83
2022/04/06 01:05:50;;;;;;;;;1.50;1.50;;;;;13.03;52.49;100932.47;2440382;28;46121;-84
2022/04/06 01:07:00;;;;;;;;;1.50;1.50;;;;;13.04;52.68;100930.69;2440903;28;44571;-84
2022/04/06 01:08:11;;;;;;;;;2.00;1.00;;;;;13.00;52.37;100926.44;2441089;28;45292;-83
2022/04/06 01:09:21;;;;;;;;;1.00;1.00;;;;;12.99;52.59;100928.22;2441778;28;44795;-83
2022/04/06 01:10:32;;;;;;;;;2.50;2.50;;;;;12.96;52.75;100928.38;2445297;28;45562;-82
2022/04/06 01:11:48;;;;;;;;;3.50;1.75;;;;;12.96;52.68;100927.50;2443415;27;45260;-83
2022/04/06 01:12:59;;;;;;;;;2.00;0.75;;;;;12.93;53.01;100924.06;2444224;28;45328;-83
2022/04/06 01:14:10;;;;;;;;;3.00;3.00;;;;;12.91;52.62;100925.88;2444445;27;44656;-86
2022/04/06 01:15:20;;;;;;;;;1.00;1.00;;;;;12.88;52.78;100931.31;2441525;28;47405;-86
2022/04/06 01:16:30;;;;;;;;;8.25;2.00;;;;;12.87;53.10;100929.56;2448092;27;45615;-85
2022/04/06 01:17:41;;;;;;;;;1.25;1.25;;;;;12.81;53.02;100917.50;2441920;28;45307;-84
2022/04/06 01:18:52;;;;;;;;;1.75;1.75;;;;;12.80;53.06;100922.84;2442464;28;45154;-84
2022/04/06 01:20:05;;;;;;;;;1.25;1.00;;;;;12.78;53.44;100920.25;2442194;28;46481;-84
2022/04/06 01:21:16;;;;;;;;;2.75;2.00;;;;;12.74;53.35;100913.38;2442685;28;45390;-84
2022/04/06 01:22:26;;;;;;;;;1.00;1.00;;;;;12.73;53.56;100909.03;2442364;28;46283;-84
2022/04/06 01:23:38;;;;;;;;;2.00;2.00;;;;;12.74;53.57;100909.91;2442538;28;45374;-84
2022/04/06 01:24:48;;;;;;;;;1.75;1.00;;;;;12.71;53.37;100910.88;2442309;28;46344;-83
2022/04/06 01:26:00;;;;;;;;;2.00;2.00;;;;;12.71;53.41;100913.50;2442532;28;45418;-83
2022/04/06 01:27:11;;;;;;;;;4.75;2.00;;;;;12.69;54.15;100904.81;2442421;28;45302;-83
2022/04/06 01:28:22;;;;;;;;;4.00;1.00;;;;;12.69;53.79;100910.09;2442606;28;44585;-83
2022/04/06 01:29:33;;;;;;;;;1.75;1.75;;;;;12.67;54.09;100909.25;2445459;28;45236;-83
2022/04/06 01:30:43;;;;;;;;;4.00;1.00;;;;;12.63;53.78;100905.03;2452405;27;44739;-83
2022/04/06 01:31:54;;;;;;;;;2.50;2.00;;;;;12.62;53.86;100901.53;2443121;27;45317;-82
2022/04/06 01:33:05;;;;;;;;;1.75;1.75;;;;;12.63;53.77;100907.66;2442614;28;44679;-83
2022/04/06 01:34:16;;;;;;;;;2.00;1.25;;;;;12.59;53.54;100905.16;2449374;28;45364;-83
2022/04/06 01:35:26;;;;;;;;;1.00;1.00;;;;;12.61;53.97;100907.75;2451928;27;44798;-82
2022/04/06 01:36:37;;;;;;;;;2.75;2.00;;;;;12.59;54.00;100909.59;2452162;27;45609;-83
2022/04/06 01:37:47;;;;;;;;;1.00;1.00;;;;;12.58;53.56;100913.13;2452234;27;45302;-83
2022/04/06 01:38:57;;;;;;;;;2.00;1.25;;;;;12.55;54.07;100906.19;2449037;28;47971;-83
2022/04/06 01:40:08;;;;;;;;;1.00;1.00;;;;;12.54;54.44;100903.63;2442036;28;45255;-83
2022/04/06 01:41:19;;;;;;;;;4.50;1.00;;;;;12.53;54.47;100907.16;2442073;28;46486;-83
2022/04/06 01:42:29;;;;;;;;;0.00;0.00;;;;;12.53;54.13;100902.75;2442470;28;44586;-83
2022/04/06 01:43:40;;;;;;;;;4.25;2.00;;;;;12.52;54.30;100906.31;2442182;28;45481;-83
2022/04/06 01:44:50;;;;;;;;;1.00;1.00;;;;;12.49;54.21;100899.38;2450595;28;45167;-83
2022/04/06 01:46:01;;;;;;;;;2.25;1.00;;;;;12.49;54.15;100895.91;2449058;27;45240;-83
2022/04/06 01:47:15;;;;;;;;;1.00;1.00;;;;;12.47;54.33;100901.22;2452305;27;44608;-83
2022/04/06 01:48:25;;;;;;;;;1.75;0.75;;;;;12.46;54.39;100899.50;2442265;27;45379;-83
2022/04/06 01:52:35;;;;;;;;;3.00;1.75;;;;;12.41;54.31;100900.59;2442262;28;45236;-83
2022/04/06 01:53:50;;;;;;;;;1.50;1.50;;;;;12.39;54.30;100900.66;2442029;28;46357;-83
2022/04/06 01:55:07;;;;;;;;;3.75;3.00;;;;;12.38;54.46;100893.66;2442333;28;45216;-83
2022/04/06 01:56:18;;;;;;;;;1.75;1.75;;;;;12.35;54.53;100901.66;2441437;28;48371;-83
2022/04/06 01:57:30;;;;;;;;;1.50;1.00;;;;;12.36;54.54;100904.28;2441964;28;44593;-83
2022/04/06 01:58:40;;;;;;;;;3.75;2.00;;;;;12.33;54.75;100900.88;2443774;27;48240;-83
2022/04/06 01:59:50;;;;;;;;;1.00;1.00;;;;;12.31;54.49;100890.41;2451709;28;45203;-83
2022/04/06 02:01:01;;;;;;;;;1.00;1.00;;;;;12.29;54.47;100892.25;2444412;27;46133;-82
2022/04/06 02:02:14;;;;;;;;;1.00;1.00;;;;;12.30;54.88;100891.31;2446069;28;44565;-88
2022/04/06 02:03:24;;;;;;;;;1.00;1.00;;;;;12.29;54.41;100894.88;2451049;28;47320;-87
2022/04/06 02:04:36;;;;;;;;;1.50;1.50;;;;;12.25;54.50;100888.84;2451619;28;45282;-84
2022/04/06 02:05:47;;;;;;;;;2.00;1.25;;;;;12.23;54.96;100893.31;2451488;27;45331;-84
2022/04/06 02:06:57;;;;;;;;;5.25;0.75;;;;;12.22;54.78;100893.38;2452021;27;44741;-84
2022/04/06 02:08:08;;;;;;;;;0.75;0.75;;;;;12.19;54.70;100886.47;2451387;27;45209;-84
2022/04/06 02:09:20;;;;;;;;;1.50;1.50;;;;;12.18;54.31;100889.13;2443268;28;47083;-84
2022/04/06 02:10:31;;;;;;;;;2.50;1.25;;;;;12.18;54.44;100897.03;2451771;27;45497;-84
2022/04/06 02:11:43;;;;;;;;;0.75;0.75;;;;;12.15;54.48;100885.69;2444944;28;45267;-84
2022/04/06 02:12:58;;;;;;;;;0.75;0.75;;;;;12.17;54.84;100897.97;2442896;28;46509;-84
2022/04/06 02:14:08;;;;;;;;;2.50;1.75;;;;;12.12;54.62;100895.47;2451543;27;45156;-84
2022/04/06 02:15:18;;;;;;;;;1.75;1.75;;;;;12.12;54.91;100892.84;2442088;28;46276;-84
2022/04/06 02:16:29;;;;;;;;;1.25;1.00;;;;;12.09;54.79;100890.31;2448456;27;45282;-91
2022/04/06 02:17:39;;;;;;;;;5.25;0.75;;;;;12.07;55.05;100889.53;2453968;27;48242;-90
2022/04/06 02:18:50;;;;;;;;;2.25;2.00;;;;;12.04;54.85;100888.72;2457808;27;44667;-91
2022/04/06 02:20:00;;;;;;;;;1.50;0.75;;;;;12.03;55.09;100887.00;2440480;28;46283;-85
2022/04/06 02:21:11;;;;;;;;;0.75;0.50;;;;;12.00;55.11;100888.91;2441386;28;44689;-85
2022/04/06 02:22:21;;;;;;;;;3.25;2.00;;;;;12.00;55.09;100888.91;2441076;28;48251;-84
2022/04/06 02:23:31;;;;;;;;;2.25;2.25;;;;;11.98;55.01;100880.16;2441586;28;44681;-85
2022/04/06 02:24:43;;;;;;;;;2.75;0.50;;;;;11.95;54.81;100878.50;2441115;28;46154;-83
2022/04/06 02:25:53;;;;;;;;;4.00;1.00;;;;;11.95;54.87;100883.75;2441482;28;45381;-83
2022/04/06 02:27:08;;;;;;;;;2.00;1.75;;;;;11.97;54.74;100891.63;2441768;28;45334;-84
2022/04/06 02:28:18;;;;;;;;;3.50;1.75;;;;;11.92;55.06;100879.50;2442381;28;44629;-84
2022/04/06 02:29:29;;;;;;;;;1.25;1.25;;;;;11.92;54.92;100878.63;2447401;28;45298;-84
2022/04/06 02:30:39;;;;;;;;;1.75;1.75;;;;;11.90;55.54;100877.84;2447781;28;45288;-84
2022/04/06 02:31:50;;;;;;;;;4.25;1.50;;;;;11.89;55.31;100876.09;2451314;27;46407;-86
2022/04/06 02:33:00;;;;;;;;;2.25;1.25;;;;;11.88;55.34;100872.59;2450465;27;45218;-85
2022/04/06 02:34:10;;;;;;;;;3.25;0.50;;;;;11.86;55.32;100873.56;2441992;28;46288;-85
2022/04/06 02:35:21;;;;;;;;;3.00;1.25;;;;;11.88;55.35;100882.28;2448786;28;45253;-86
2022/04/06 02:36:31;;;;;;;;;1.50;1.50;;;;;11.85;55.16;100869.22;2450631;27;46417;-83
2022/04/06 02:37:44;;;;;;;;;1.00;1.00;;;;;11.83;55.27;100869.28;2450060;28;45377;-83
2022/04/06 02:38:54;;;;;;;;;1.00;1.00;;;;;11.82;55.43;100867.56;2446673;27;46170;-82
2022/04/06 02:40:05;;;;;;;;;1.50;0.50;;;;;11.80;55.12;100870.25;2451798;27;45165;-82
2022/04/06 02:41:15;;;;;;;;;3.25;0.50;;;;;11.79;55.40;100867.66;2442614;27;46537;-82
2022/04/06 02:42:26;;;;;;;;;0.75;0.75;;;;;11.81;56.03;100865.84;2447062;28;45314;-84
2022/04/06 02:43:36;;;;;;;;;0.50;0.50;;;;;11.82;55.71;100868.44;2451441;27;46658;-83
2022/04/06 02:44:46;;;;;;;;;2.25;1.25;;;;;11.81;55.53;100868.47;2451847;27;44689;-84
2022/04/06 02:45:57;;;;;;;;;3.75;1.50;;;;;11.82;55.34;100868.44;2451453;27;46341;-83
2022/04/06 02:47:07;;;;;;;;;2.75;1.25;;;;;11.82;55.53;100862.31;2451607;27;45274;-82
2022/04/06 02:48:18;;;;;;;;;3.00;1.00;;;;;11.84;55.68;100863.09;2446195;28;47173;-84
2022/04/06 02:49:28;;;;;;;;;0.50;0.50;;;;;11.85;55.60;100858.69;2441052;28;45250;-83
2022/04/06 02:50:39;;;;;;;;;2.50;1.00;;;;;11.87;55.58;100870.03;2440917;28;45393;-84
2022/04/06 02:51:49;;;;;;;;;3.50;2.50;;;;;11.86;55.38;100863.91;2441792;28;45161;-83
2022/04/06 02:52:59;;;;;;;;;1.25;1.25;;;;;11.88;55.77;100863.84;2441722;28;46262;-83
2022/04/06 02:54:10;;;;;;;;;1.00;0.25;;;;;11.88;55.28;100872.59;2441999;28;45212;-82
2022/04/06 02:55:20;;;;;;;;;2.25;1.50;;;;;11.91;55.63;100867.22;2441701;28;46473;-82
2022/04/06 02:56:31;;;;;;;;;3.00;1.50;;;;;11.91;55.12;100861.09;2441719;28;44542;-82
2022/04/06 02:57:42;;;;;;;;;1.50;0.50;;;;;11.93;55.14;100856.63;2441246;28;45421;-82
2022/04/06 02:58:53;;;;;;;;;2.25;1.50;;;;;11.93;55.53;100870.66;2449952;28;45449;-82
2022/04/06 03:00:04;;;;;;;;;2.50;1.50;;;;;11.95;55.77;100861.84;2445759;28;47177;-82
2022/04/06 03:01:15;;;;;;;;;1.00;1.00;;;;;11.97;55.60;100854.75;2441978;28;44731;-82
2022/04/06 03:02:25;;;;;;;;;0.50;0.50;;;;;11.99;55.64;100861.69;2451275;28;46271;-82
2022/04/06 03:03:35;;;;;;;;;0.50;0.50;;;;;12.00;55.52;100859.91;2451105;27;45448;-82
2022/04/06 03:04:46;;;;;;;;;0.50;0.50;;;;;12.01;55.62;100862.47;2450633;27;46455;-83
2022/04/06 03:05:56;;;;;;;;;0.50;0.50;;;;;12.01;55.21;100851.06;2450629;27;45301;-83
2022/04/06 03:07:07;;;;;;;;;0.50;0.50;;;;;12.03;55.13;100849.25;2442675;27;45344;-83
2022/04/06 03:08:18;;;;;;;;;2.00;0.50;;;;;12.02;55.35;100843.13;2441871;28;45162;-83
2022/04/06 03:09:28;;;;;;;;;0.00;0.00;;;;;12.06;55.38;100845.63;2441483;28;46207;-86
2022/04/06 03:10:38;;;;;;;;;2.50;0.50;;;;;12.06;54.91;100848.28;2444554;28;45276;-86
2022/04/06 03:11:49;;;;;;;;;0.50;0.50;;;;;12.05;54.86;100847.41;2446743;28;46105;-86
2022/04/06 03:12:59;;;;;;;;;0.75;0.00;;;;;12.07;55.10;100845.59;2443220;28;45213;-85
2022/04/06 03:14:09;;;;;;;;;1.50;1.50;;;;;12.07;55.07;100842.09;2440474;28;47146;-83
2022/04/06 03:15:20;;;;;;;;;0.50;0.50;;;;;12.09;55.08;100850.78;2440876;28;45282;-83
2022/04/06 03:16:30;;;;;;;;;0.75;0.75;;;;;12.08;54.84;100841.16;2447748;27;45326;-83
2022/04/06 03:17:41;;;;;;;;;0.50;0.50;;;;;12.08;55.07;100841.16;2441300;28;45243;-82
2022/04/06 03:18:52;;;;;;;;;0.00;0.00;;;;;12.11;55.04;100841.91;2440919;28;46021;-83
2022/04/06 03:20:05;;;;;;;;;0.00;0.00;;;;;12.12;54.92;100840.16;2443992;28;44683;-83
2022/04/06 03:21:15;;;;;;;;;0.50;0.50;;;;;12.09;54.79;100832.34;2451187;27;48197;-87
2022/04/06 03:22:26;;;;;;;;;1.50;1.00;;;;;12.10;54.92;100834.91;2442992;27;45276;-87
2022/04/06 03:23:36;;;;;;;;;0.25;0.25;;;;;12.10;55.07;100834.91;2445044;28;47087;-84
2022/04/06 03:24:47;;;;;;;;;2.00;0.25;;;;;12.12;55.35;100837.50;2450873;28;45336;-84
2022/04/06 03:25:57;;;;;;;;;1.50;1.50;;;;;12.13;55.25;100828.72;2451154;27;45428;-85
2022/04/06 03:27:08;;;;;;;;;0.50;0.50;;;;;12.14;55.04;100835.72;2444424;27;45376;-85
2022/04/06 03:28:19;;;;;;;;;0.50;0.50;;;;;12.12;55.27;100830.44;2440908;28;45353;-84
2022/04/06 03:29:30;;;;;;;;;0.75;0.75;;;;;12.12;55.08;100822.53;2441704;28;45348;-83
2022/04/06 03:30:40;;;;;;;;;1.75;0.50;;;;;12.11;54.75;100826.09;2441931;28;45450;-86
2022/04/06 03:31:51;;;;;;;;;1.50;0.50;;;;;12.12;54.71;100826.97;2449425;27;45319;-83
2022/04/06 03:33:02;;;;;;;;;1.00;1.00;;;;;12.10;55.44;100824.38;2450224;27;45435;-85
2022/04/06 03:34:13;;;;;;;;;0.50;0.25;;;;;12.10;55.29;100824.38;2449641;28;45437;-85
2022/04/06 03:35:23;;;;;;;;;2.75;1.50;;;;;12.12;55.23;100822.53;2446470;28;46192;-91
2022/04/06 03:36:33;;;;;;;;;1.00;1.00;;;;;12.09;55.30;100814.78;2440583;28;44751;-90
2022/04/06 03:37:44;;;;;;;;;1.00;0.50;;;;;12.10;55.52;100824.38;2433803;28;46938;-90
2022/04/06 03:38:55;;;;;;;;;0.50;0.50;;;;;12.08;55.32;100818.31;2434915;28;45296;-91
2022/04/06 03:40:06;;;;;;;;;1.50;0.50;;;;;12.07;55.25;100816.63;2445790;28;45607;-88
2022/04/06 03:41:16;;;;;;;;;1.00;1.00;;;;;12.06;55.43;100820.16;2451184;27;45334;-84
2022/04/06 03:42:27;;;;;;;;;1.25;0.50;;;;;12.06;55.75;100812.25;2450452;27;46362;-85
2022/04/06 03:43:37;;;;;;;;;2.00;1.00;;;;;12.06;55.51;100816.66;2449771;28;45604;-85
2022/04/06 03:44:47;;;;;;;;;0.50;0.50;;;;;12.06;55.41;100812.25;2449825;27;46553;-86
2022/04/06 03:45:58;;;;;;;;;0.50;0.50;;;;;12.05;55.57;100813.16;2450492;27;45283;-87
2022/04/06 03:47:08;;;;;;;;;0.50;0.50;;;;;12.04;55.53;100814.09;2450605;27;45256;-86
2022/04/06 03:48:22;;;;;;;;;1.00;0.25;;;;;12.04;55.45;100808.81;2447084;27;46641;-85
2022/04/06 03:49:32;;;;;;;;;0.50;0.50;;;;;12.00;55.52;100802.78;2440621;28;45519;-86
2022/04/06 03:50:42;;;;;;;;;0.00;0.00;;;;;12.01;55.42;100809.78;2440398;28;45219;-86
2022/04/06 03:51:53;;;;;;;;;3.00;0.25;;;;;12.02;55.14;100813.28;2440833;28;45490;-86
2022/04/06 03:53:03;;;;;;;;;1.25;0.00;;;;;11.99;55.07;100806.38;2441574;28;45338;-86
2022/04/06 03:54:14;;;;;;;;;1.00;0.50;;;;;12.00;55.07;100809.88;2441282;28;45576;-86
2022/04/06 03:55:24;;;;;;;;;2.50;1.00;;;;;12.00;55.33;100804.59;2441621;28;44678;-85
2022/04/06 03:56:34;;;;;;;;;0.50;0.50;;;;;11.98;55.18;100801.13;2441189;28;45378;-85
2022/04/06 03:57:45;;;;;;;;;3.25;0.50;;;;;12.00;55.25;100812.50;2441289;28;45266;-85
2022/04/06 03:58:55;;;;;;;;;0.50;0.50;;;;;12.01;55.43;100808.94;2441533;28;45412;-85
2022/04/06 04:00:08;;;;;;;;;0.50;0.00;;;;;11.99;55.18;100809.00;2441385;28;45400;-85
2022/04/06 04:01:18;;;;;;;;;2.50;0.50;;;;;11.97;55.13;100805.56;2441169;28;45307;-87
2022/04/06 04:02:28;;;;;;;;;0.50;0.50;;;;;11.99;55.42;100808.13;2441497;28;45260;-87
2022/04/06 04:03:39;;;;;;;;;0.00;0.00;;;;;11.97;55.60;100809.97;2441174;28;46297;-87
2022/04/06 04:04:49;;;;;;;;;0.00;0.00;;;;;11.98;55.76;100809.91;2441005;28;44776;-87
2022/04/06 04:05:59;;;;;;;;;1.00;0.25;;;;;12.00;55.63;100815.13;2441448;28;45223;-87
2022/04/06 04:07:10;;;;;;;;;0.50;0.00;;;;;11.98;55.42;100809.03;2441429;28;45235;-86
2022/04/06 04:08:22;;;;;;;;;1.75;0.50;;;;;11.99;55.58;100806.38;2442846;28;48273;-88
2022/04/06 04:09:34;;;;;;;;;0.75;0.25;;;;;12.00;55.53;100810.69;2446784;28;44732;-87
2022/04/06 04:10:44;;;;;;;;;1.50;1.50;;;;;12.01;55.26;100808.94;2441315;28;45465;-87
2022/04/06 04:11:56;;;;;;;;;0.00;0.00;;;;;11.98;55.53;100804.63;2441404;28;45341;-86
2022/04/06 04:13:06;;;;;;;;;0.75;0.75;;;;;12.00;55.57;100812.50;2443508;28;45413;-86
2022/04/06 04:14:17;;;;;;;;;1.00;1.00;;;;;12.00;55.66;100805.44;2449984;28;45255;-87
2022/04/06 04:15:27;;;;;;;;;1.75;1.00;;;;;12.00;55.76;100815.97;2433348;28;48273;-86
2022/04/06 04:16:38;;;;;;;;;1.00;0.00;;;;;12.00;56.05;100815.97;2444326;27;44685;-86
2022/04/06 04:17:48;;;;;;;;;1.00;1.00;;;;;12.01;56.16;100812.44;2441048;28;45247;-86
2022/04/06 04:18:58;;;;;;;;;1.00;1.00;;;;;12.01;55.74;100812.44;2441889;28;45303;-87
2022/04/06 04:20:09;;;;;;;;;2.00;1.00;;;;;12.02;56.00;100811.53;2439675;28;45525;-86
2022/04/06 04:21:32;;;;;;;;;2.00;1.00;;;;;12.00;56.09;100805.44;2450527;28;44625;-86
2022/04/06 04:22:42;;;;;;;;;1.00;0.50;;;;;12.01;55.79;100814.19;2448792;27;45403;-84
2022/04/06 04:23:52;;;;;;;;;5.50;2.00;;;;;12.01;55.97;100809.78;2450550;27;45310;-85
2022/04/06 04:25:03;;;;;;;;;2.00;2.00;;;;;12.01;55.76;100803.66;2440845;28;45383;-85
2022/04/06 04:26:14;;;;;;;;;3.75;1.00;;;;;12.02;55.90;100808.03;2446517;28;44841;-86
2022/04/06 04:27:24;;;;;;;;;1.00;1.00;;;;;12.01;55.83;100809.78;2439770;28;47365;-86
2022/04/06 04:28:35;;;;;;;;;2.50;1.25;;;;;12.02;55.72;100808.03;2440779;28;45350;-85
2022/04/06 04:29:46;;;;;;;;;1.75;1.75;;;;;11.99;55.78;100805.50;2440855;28;45445;-86
2022/04/06 04:30:56;;;;;;;;;1.50;0.75;;;;;11.99;56.19;100794.97;2442924;28;45310;-85
2022/04/06 04:32:07;;;;;;;;;2.25;0.50;;;;;12.00;56.17;100791.41;2450956;28;45449;-85
2022/04/06 04:33:17;;;;;;;;;2.25;1.75;;;;;12.01;56.06;100801.91;2442981;28;45219;-85
2022/04/06 04:34:28;;;;;;;;;1.00;1.00;;;;;12.00;56.12;100796.69;2444069;28;47132;-85
2022/04/06 04:35:38;;;;;;;;;1.00;1.00;;;;;12.00;56.00;100794.88;2449961;28;45294;-84
2022/04/06 04:36:48;;;;;;;;;5.50;1.00;;;;;12.02;55.81;100800.13;2450894;27;45344;-85
2022/04/06 04:37:59;;;;;;;;;3.00;1.00;;;;;11.99;55.83;100789.69;2459936;27;44595;-85
2022/04/06 04:39:09;;;;;;;;;2.50;2.50;;;;;12.01;55.82;100790.50;2449564;27;45408;-91
2022/04/06 04:40:21;;;;;;;;;3.00;1.00;;;;;11.99;56.18;100780.03;2460231;27;45160;-89
2022/04/06 04:41:31;;;;;;;;;1.50;1.50;;;;;12.01;56.39;100782.59;2441752;28;48200;-92
2022/04/06 04:42:42;;;;;;;;;2.50;1.75;;;;;11.99;56.16;100781.78;2440529;28;45418;-92
2022/04/06 04:43:53;;;;;;;;;4.00;2.25;;;;;12.02;56.05;100781.69;2437452;28;48142;-93
2022/04/06 04:45:04;;;;;;;;;1.00;1.00;;;;;12.01;55.98;100782.59;2442445;28;44754;-93
2022/04/06 04:46:15;;;;;;;;;2.75;1.00;;;;;12.01;55.83;100778.19;2435584;28;48109;-93
2022/04/06 04:47:25;;;;;;;;;2.50;1.50;;;;;12.03;56.06;100780.75;2437867;28;45431;-94
2022/04/06 04:48:35;;;;;;;;;2.75;2.25;;;;;12.01;56.09;100772.91;2444712;28;47609;-84
2022/04/06 04:49:46;;;;;;;;;1.75;1.00;;;;;12.01;55.96;100766.78;2449221;28;45259;-84
2022/04/06 04:50:57;;;;;;;;;4.50;2.25;;;;;12.00;56.26;100770.34;2452101;27;46160;-84
2022/04/06 04:52:08;;;;;;;;;1.00;1.00;;;;;12.00;55.97;100771.19;2450575;28;45393;-84
2022/04/06 04:53:18;;;;;;;;;1.00;1.00;;;;;12.00;55.99;100773.00;2450323;28;45539;-84
2022/04/06 04:54:29;;;;;;;;;0.50;0.50;;;;;12.01;56.24;100772.91;2451432;28;44581;-83
2022/04/06 04:55:41;;;;;;;;;1.50;1.50;;;;;12.02;56.02;100768.50;2451769;27;46269;-83
2022/04/06 04:56:52;;;;;;;;;1.50;0.50;;;;;12.03;56.09;100765.81;2451649;28;45223;-83
2022/04/06 04:58:02;;;;;;;;;2.00;1.50;;;;;12.02;56.00;100768.50;2451614;27;46350;-84
2022/04/06 04:59:13;;;;;;;;;1.50;1.50;;;;;12.03;55.99;100770.22;2443155;27;45213;-90
2022/04/06 05:00:23;;;;;;;;;2.00;2.00;;;;;12.01;55.67;100772.91;2446480;28;47457;-86
2022/04/06 05:01:33;;;;;;;;;2.25;1.00;;;;;12.04;55.99;100771.94;2454524;27;44720;-86
2022/04/06 05:02:44;;;;;;;;;2.50;1.75;;;;;12.04;55.90;100777.22;2448112;27;47061;-85
2022/04/06 05:03:54;;;;;;;;;2.25;0.75;;;;;12.02;55.71;100768.50;2434774;28;45322;-85
2022/04/06 05:05:10;;;;;;;;;0.50;0.50;;;;;12.03;55.94;100772.84;2441680;28;46266;-84
2022/04/06 05:06:20;;;;;;;;;2.25;1.25;;;;;12.00;55.63;100765.91;2442574;28;45209;-85
2022/04/06 05:07:31;;;;;;;;;3.00;1.25;;;;;12.02;55.58;100769.38;2442516;28;45327;-83
2022/04/06 05:08:41;;;;;;;;;1.25;1.25;;;;;12.01;55.74;100767.66;2446150;28;44705;-82
2022/04/06 05:09:52;;;;;;;;;3.50;2.50;;;;;12.02;55.60;100768.50;2445971;28;46572;-83
2022/04/06 05:11:02;;;;;;;;;2.00;1.50;;;;;12.02;55.61;100769.38;2451341;28;45436;-83
2022/04/06 05:12:13;;;;;;;;;1.25;1.25;;;;;12.02;55.83;100768.50;2450634;28;47532;-83
2022/04/06 05:13:23;;;;;;;;;2.50;1.50;;;;;12.03;55.87;100762.31;2450483;28;45429;-84
2022/04/06 05:14:34;;;;;;;;;3.25;2.00;;;;;12.03;56.09;100759.66;2449440;28;45441;-83
2022/04/06 05:15:45;;;;;;;;;1.25;1.25;;;;;12.06;56.06;100756.94;2452156;27;45416;-83
2022/04/06 05:16:56;;;;;;;;;1.50;1.50;;;;;12.06;56.03;100759.56;2451155;27;45449;-83
2022/04/06 05:18:06;;;;;;;;;4.50;1.50;;;;;12.05;56.13;100752.56;2449825;28;45452;-83
2022/04/06 05:19:17;;;;;;;;;1.75;1.75;;;;;12.06;56.13;100758.69;2450056;28;46444;-83
2022/04/06 05:20:27;;;;;;;;;1.25;1.25;;;;;12.07;56.08;100766.56;2451320;28;45337;-83
2022/04/06 05:21:38;;;;;;;;;2.00;1.50;;;;;12.07;55.96;100766.56;2449952;28;47143;-83
2022/04/06 05:22:48;;;;;;;;;2.00;1.25;;;;;12.09;56.00;100764.72;2447432;28;45214;-83
2022/04/06 05:23:59;;;;;;;;;2.00;1.75;;;;;12.07;56.10;100756.03;2450486;28;46935;-85
2022/04/06 05:25:10;;;;;;;;;3.25;2.50;;;;;12.07;56.20;100760.44;2451062;28;45447;-84
2022/04/06 05:26:21;;;;;;;;;2.50;1.25;;;;;12.07;55.88;100753.38;2445329;28;46294;-83
2022/04/06 05:27:31;;;;;;;;;2.50;2.25;;;;;12.06;56.21;100746.38;2446120;27;44729;-84
2022/04/06 05:28:41;;;;;;;;;2.25;1.50;;;;;12.07;56.23;100750.75;2447262;27;45622;-83
2022/04/06 05:29:52;;;;;;;;;2.75;1.50;;;;;12.09;56.30;100745.41;2451350;27;44700;-83
2022/04/06 05:31:02;;;;;;;;;5.25;3.25;;;;;12.11;56.40;100752.34;2450007;27;46288;-84
2022/04/06 05:32:13;;;;;;;;;2.75;2.00;;;;;12.10;56.71;100758.50;2450435;28;45243;-84
2022/04/06 05:33:23;;;;;;;;;3.00;3.00;;;;;12.13;56.26;100761.06;2447083;27;45401;-84